Forside
METAR-TAF:

METAR-TAF

Lufthavne :

Ängelholm-Helsingborg Lufthavn

Helsingborg, Sverige

Breddekreds: 56-17-46N, længdekreds: 012-50-50E, højde: 21 m

Aktuelle vejr

Denne rapport blev lavet for 21 minutter siden, kl. 15:20 UTC
Vind 10 kt fra sydsydvest
Temperatur 14°C
Fugtighed 38%
Tryk 1022 hPa
Sigt 10 km eller mere

METAR: ESTA 081520Z AUTO 21010KT 9999 FEW057/// 14/M00 Q1022

Tid: 17:41 (15:41 UTC)


TAF: fraværende

Vejrobservationer og prognoser fra mere end 4000 lufthavne (METAR og TAF).

De gule og røde prikker repræsenterer de meteorologiske stationer.

Flyt musen over at se navnet på stationen.

Så klik over at se vejr observationer og prognoser.

At skifte det kort: Klik på de grønne knapper med et sort kors for at zoome ind; på den grønne knap med en bindestreg for at zoome ud; eller på de grønne pile for tilstødende kort.


METAR-TAF: